Time;durP1;ratioP1;P1;durP2;ratioP2;P2;SDS_P1;SDS_P2;PMS_P1;PMS_P2;Temp;Humidity;BMP_temperature;BMP_pressure;BME280_temperature;BME280_humidity;BME280_pressure;Samples;Min_cycle;Max_cycle;Signal;HPM_P1;HPM_P2
2021/06/21 00:01:28;;;;;;;5.05;4.53;;;;;;;24.48;48.21;99720.76;1795688;79;20982;-70
2021/06/21 00:03:54;;;;;;;4.87;4.37;;;;;;;24.43;48.33;99720.77;1820790;78;20974;-70
2021/06/21 00:06:21;;;;;;;4.65;4.17;;;;;;;24.38;48.43;99727.85;1795948;80;20990;-70
2021/06/21 00:08:47;;;;;;;7.53;4.90;;;;;;;24.33;48.58;99727.89;1795236;79;21439;-70
2021/06/21 00:11:13;;;;;;;6.58;4.33;;;;;;;24.30;48.75;99725.72;1795157;79;20959;-70
2021/06/21 00:13:39;;;;;;;5.28;4.58;;;;;;;24.27;48.85;99732.27;1828169;78;20951;-70
2021/06/21 00:16:05;;;;;;;6.22;4.95;;;;;;;24.23;48.96;99728.45;1795856;79;21045;-70
2021/06/21 00:18:31;;;;;;;7.12;4.50;;;;;;;24.20;49.08;99726.28;1828526;78;21520;-70
2021/06/21 00:20:57;;;;;;;6.78;4.40;;;;;;;24.15;49.19;99723.02;1794653;79;21973;-70
2021/06/21 00:23:23;;;;;;;6.22;4.53;;;;;;;24.10;49.32;99720.25;1828449;78;20947;-70
2021/06/21 00:25:49;;;;;;;7.55;4.80;;;;;;;24.09;49.45;99727.35;1793826;79;20982;-70
2021/06/21 00:28:16;;;;;;;5.95;4.20;;;;;;;24.03;49.55;99726.53;1829131;78;20978;-70
2021/06/21 00:30:43;;;;;;;5.78;4.50;;;;;;;23.99;49.67;99732.28;1796421;79;21033;-70
2021/06/21 00:33:09;;;;;;;4.90;4.40;;;;;;;23.97;49.79;99722.72;1828957;78;21156;-70
2021/06/21 00:35:36;;;;;;;7.15;4.58;;;;;;;23.94;49.92;99726.82;1796506;79;21002;-70
2021/06/21 00:38:04;;;;;;;8.10;4.58;;;;;;;23.89;50.02;99730.36;1828733;78;21034;-70
2021/06/21 00:40:32;;;;;;;5.12;4.62;;;;;;;23.85;50.12;99728.47;1796468;79;21017;-70
2021/06/21 00:42:58;;;;;;;5.78;4.25;;;;;;;23.81;50.26;99730.10;1828842;78;21061;-70
2021/06/21 00:45:24;;;;;;;6.08;4.08;;;;;;;23.78;50.41;99731.47;1796550;79;21177;-70
2021/06/21 00:47:51;;;;;;;4.42;3.83;;;;;;;23.76;50.57;99735.53;1828375;78;21265;-70
2021/06/21 00:50:18;;;;;;;7.83;3.98;;;;;;;23.73;50.67;99730.64;1796141;79;21001;-70
2021/06/21 00:52:44;;;;;;;6.22;4.50;;;;;;;23.70;50.79;99717.58;1796572;79;21447;-70
2021/06/21 00:55:12;;;;;;;12.07;4.55;;;;;;;23.70;50.88;99723.84;1764525;81;21040;-70
2021/06/21 00:57:38;;;;;;;5.10;4.60;;;;;;;23.69;51.01;99732.27;1796498;79;21146;-70
2021/06/21 01:00:08;;;;;;;4.95;4.45;;;;;;;23.67;51.11;99729.02;1764492;81;20977;-70
2021/06/21 01:02:34;;;;;;;5.10;4.60;;;;;;;23.66;51.18;99739.08;1796530;79;20966;-70
2021/06/21 01:05:00;;;;;;;7.00;4.45;;;;;;;23.61;51.26;99750.53;1796400;79;21422;-70
2021/06/21 01:07:26;;;;;;;6.25;4.70;;;;;;;23.55;51.38;99742.87;1763486;81;21505;-70
2021/06/21 01:09:53;;;;;;;4.80;4.37;;;;;;;23.50;51.49;99751.06;1763422;80;21183;-70
2021/06/21 01:12:49;;;;;;;8.80;5.20;;;;;;;23.44;51.61;99747.20;1763929;79;21040;-70
2021/06/21 01:15:25;;;;;;;6.53;4.42;;;;;;;23.39;51.75;99752.91;1796491;79;21037;-70
2021/06/21 01:18:14;;;;;;;8.23;5.08;;;;;;;23.33;51.88;99747.16;1773443;79;21490;-70
2021/06/21 01:21:22;;;;;;;6.17;5.00;;;;;;;23.29;52.04;99741.98;1772067;79;21048;-70
2021/06/21 01:24:23;;;;;;;6.62;4.47;;;;;;;23.24;52.19;99733.83;1761324;81;21202;-70
2021/06/21 01:26:52;;;;;;;8.50;4.65;;;;;;;23.20;52.35;99731.91;1792641;80;21010;-70
2021/06/21 01:29:44;;;;;;;5.97;4.37;;;;;;;23.14;52.50;99719.37;1792938;80;21010;-70
2021/06/21 01:32:30;;;;;;;6.95;4.78;;;;;;;23.11;52.61;99720.74;1790332;78;21037;-70
2021/06/21 01:34:57;;;;;;;5.85;4.47;;;;;;;23.06;52.76;99715.27;1764774;81;20995;-70
2021/06/21 01:37:23;;;;;;;5.33;4.72;;;;;;;23.04;52.89;99716.10;1790363;79;21130;-70
2021/06/21 01:39:52;;;;;;;5.25;4.42;;;;;;;23.01;52.97;99712.53;1764673;81;21479;-70
2021/06/21 01:42:20;;;;;;;8.68;5.15;;;;;;;22.97;53.08;99708.73;1792788;80;21013;-70
2021/06/21 01:45:03;;;;;;;5.30;4.30;;;;;;;22.92;53.18;99704.63;1732132;81;21320;-70
2021/06/21 01:47:30;;;;;;;5.22;4.28;;;;;;;22.89;53.30;99701.09;1793893;78;21006;-70
2021/06/21 01:49:56;;;;;;;6.62;4.50;;;;;;;22.87;53.50;99705.95;1764986;81;21046;-70
2021/06/21 01:52:22;;;;;;;6.22;4.55;;;;;;;22.85;53.58;99704.06;1792702;79;20974;-70
2021/06/21 01:54:56;;;;;;;4.35;3.95;;;;;;;22.82;53.68;99699.98;1764742;81;21082;-70
2021/06/21 01:57:28;;;;;;;6.22;4.70;;;;;;;22.79;53.82;99690.19;1794989;78;21033;-70
2021/06/21 01:59:54;;;;;;;6.75;4.45;;;;;;;22.76;53.95;99688.80;1763466;80;21028;-70
2021/06/21 02:02:22;;;;;;;6.80;4.53;;;;;;;22.74;54.06;99677.38;1759832;81;21018;-70
2021/06/21 02:04:49;;;;;;;4.95;4.22;;;;;;;22.72;54.21;99681.45;1792823;78;21049;-70
2021/06/21 02:07:17;;;;;;;5.58;4.40;;;;;;;22.71;54.38;99679.81;1759910;81;21045;-70
2021/06/21 02:09:43;;;;;;;8.00;4.10;;;;;;;22.67;54.47;99675.98;1792773;78;20967;-70
2021/06/21 02:12:09;;;;;;;6.70;4.55;;;;;;;22.66;54.57;99677.06;1759970;81;21021;-70
2021/06/21 02:14:35;;;;;;;5.35;4.50;;;;;;;22.64;54.64;99677.31;1767864;78;21731;-70
2021/06/21 02:17:01;;;;;;;5.20;4.40;;;;;;;22.63;54.71;99672.95;1825002;78;21057;-70
2021/06/21 02:19:30;;;;;;;5.95;4.50;;;;;;;22.62;54.75;99675.95;1824900;78;20966;-70
2021/06/21 02:21:57;;;;;;;5.33;4.50;;;;;;;22.61;54.83;99674.31;1792810;80;20978;-70
2021/06/21 02:24:23;;;;;;;4.47;4.08;;;;;;;22.60;54.94;99675.39;1804171;78;21006;-70
2021/06/21 02:26:49;;;;;;;5.37;4.55;;;;;;;22.61;55.02;99674.31;1764585;81;21200;-71
2021/06/21 02:29:18;;;;;;;5.08;4.33;;;;;;;22.60;55.07;99683.00;1764580;81;21015;-70
2021/06/21 02:31:45;;;;;;;6.17;4.10;;;;;;;22.60;55.13;99686.26;1764489;81;20995;-70
2021/06/21 02:34:12;;;;;;;6.85;4.75;;;;;;;22.61;55.14;99691.98;1773321;81;21042;-70
2021/06/21 02:36:38;;;;;;;7.10;4.55;;;;;;;22.59;55.16;99696.87;1773331;80;21338;-70
2021/06/21 02:39:05;;;;;;;5.62;4.50;;;;;;;22.55;55.21;99691.69;1773419;81;21910;-70
2021/06/21 02:41:31;;;;;;;9.10;4.95;;;;;;;22.54;55.25;99693.59;1773272;81;21034;-70
2021/06/21 02:43:57;;;;;;;6.15;4.62;;;;;;;22.54;55.30;99696.84;1752940;81;21003;-70
2021/06/21 02:46:23;;;;;;;4.75;3.80;;;;;;;22.55;55.37;99703.92;1742736;81;21515;-70
2021/06/21 02:48:49;;;;;;;8.15;4.12;;;;;;;22.55;55.44;99700.67;1742679;82;20994;-70
2021/06/21 02:51:19;;;;;;;4.70;4.17;;;;;;;22.57;55.50;99703.10;1769696;81;21207;-70
2021/06/21 02:54:33;;;;;;;7.90;4.45;;;;;;;22.58;55.55;99696.59;1738132;81;21014;-70
2021/06/21 02:57:31;;;;;;;6.60;4.10;;;;;;;22.62;55.66;99707.22;1729767;82;21049;-70
2021/06/21 02:59:57;;;;;;;8.70;4.50;;;;;;;22.65;55.75;99712.94;1701415;82;20996;-70
2021/06/21 03:02:23;;;;;;;5.12;3.77;;;;;;;22.66;55.79;99718.63;1725676;82;21050;-70
2021/06/21 03:04:49;;;;;;;7.42;5.08;;;;;;;22.66;55.85;99715.91;1742759;81;21094;-70
2021/06/21 03:07:18;;;;;;;8.73;5.05;;;;;;;22.71;55.88;99720.59;1742718;82;21055;-70
2021/06/21 03:09:45;;;;;;;4.90;4.28;;;;;;;22.73;55.91;99719.23;1736742;81;20998;-70
2021/06/21 03:12:12;;;;;;;4.80;4.30;;;;;;;22.76;55.89;99721.98;1755672;81;21507;-70
2021/06/21 03:14:43;;;;;;;7.67;4.45;;;;;;;22.79;55.93;99724.17;1773273;81;21668;-70
2021/06/21 03:17:08;;;;;;;5.72;4.22;;;;;;;22.84;55.89;99729.61;1773142;80;21250;-70
2021/06/21 03:19:34;;;;;;;8.40;5.10;;;;;;;22.90;55.88;99732.64;1772562;80;21089;-70
2021/06/21 03:22:01;;;;;;;6.80;4.17;;;;;;;22.95;55.87;99734.00;1730606;81;20999;-70
2021/06/21 03:24:27;;;;;;;8.33;4.92;;;;;;;23.03;55.87;99728.05;1790524;79;21069;-70
2021/06/21 03:26:53;;;;;;;6.28;4.35;;;;;;;23.21;55.89;99726.73;1805475;79;21022;-70
2021/06/21 03:29:21;;;;;;;6.28;4.70;;;;;;;23.51;55.86;99738.23;1805594;79;21148;-70
2021/06/21 03:31:49;;;;;;;7.60;4.72;;;;;;;23.88;55.61;99736.09;1796823;78;21021;-70
2021/06/21 03:34:19;;;;;;;5.75;4.45;;;;;;;24.19;55.25;99735.55;1765332;81;21006;-70
2021/06/21 03:36:45;;;;;;;8.30;4.12;;;;;;;24.51;54.91;99742.02;1795639;79;20994;-70
2021/06/21 03:39:12;;;;;;;6.15;4.80;;;;;;;24.71;54.54;99735.12;1765866;79;21010;-70
2021/06/21 03:41:38;;;;;;;5.67;4.53;;;;;;;24.92;54.15;99729.05;1810724;78;21580;-70
2021/06/21 03:44:04;;;;;;;5.28;4.30;;;;;;;25.34;53.85;99741.11;1796865;79;20979;-70
2021/06/21 03:46:30;;;;;;;10.55;5.85;;;;;;;25.44;53.27;99740.22;1828297;78;20993;-70
2021/06/21 03:48:57;;;;;;;7.67;4.58;;;;;;;25.03;53.00;99739.65;1796908;79;21035;-70
2021/06/21 03:51:24;;;;;;;6.08;4.25;;;;;;;24.70;53.02;99740.33;1828638;78;21010;-70
2021/06/21 03:53:50;;;;;;;8.83;4.67;;;;;;;24.38;53.14;99736.61;1797003;79;21455;-70
2021/06/21 03:56:16;;;;;;;8.10;4.35;;;;;;;24.19;53.27;99730.91;1828191;78;21900;-70
2021/06/21 03:58:45;;;;;;;6.05;4.33;;;;;;;24.15;53.40;99731.73;1797041;79;21416;-70
2021/06/21 04:01:11;;;;;;;12.50;4.60;;;;;;;24.06;53.47;99727.36;1828510;78;20978;-70
2021/06/21 04:03:37;;;;;;;6.25;5.25;;;;;;;24.03;53.57;99727.09;1797060;79;21601;-70
2021/06/21 04:06:03;;;;;;;5.00;4.50;;;;;;;23.98;53.73;99732.00;1812828;78;21473;-70
2021/06/21 04:08:29;;;;;;;7.22;4.45;;;;;;;23.97;53.83;99727.63;1793256;80;20950;-70
2021/06/21 04:10:55;;;;;;;5.53;4.40;;;;;;;24.00;53.89;99720.27;1765308;81;21050;-70
2021/06/21 04:13:22;;;;;;;5.45;4.75;;;;;;;24.18;54.00;99721.64;1795796;79;20977;-70
2021/06/21 04:15:48;;;;;;;10.10;5.10;;;;;;;24.51;53.99;99725.66;1765312;81;21085;-70
2021/06/21 04:18:16;;;;;;;6.85;4.60;;;;;;;25.11;53.75;99726.79;1796800;78;21610;-70
2021/06/21 04:20:43;;;;;;;5.12;4.55;;;;;;;25.61;53.18;99720.76;1796104;78;21438;-70
2021/06/21 04:23:09;;;;;;;7.40;4.47;;;;;;;25.61;52.75;99711.20;1765286;81;20999;-70
2021/06/21 04:25:36;;;;;;;14.00;5.10;;;;;;;25.80;52.50;99713.48;1792696;79;21001;-70
2021/06/21 04:28:03;;;;;;;6.42;4.83;;;;;;;26.23;51.98;99715.30;1792519;78;20990;-70
2021/06/21 04:30:29;;;;;;;8.68;5.08;;;;;;;26.36;51.56;99713.78;1759612;81;21790;-70
2021/06/21 04:32:55;;;;;;;7.08;4.90;;;;;;;26.45;51.46;99703.03;1792746;78;20970;-70
2021/06/21 04:35:23;;;;;;;11.20;4.62;;;;;;;26.45;51.31;99699.75;1759607;81;21402;-71
2021/06/21 04:37:49;;;;;;;6.72;4.65;;;;;;;26.36;51.25;99701.47;1792569;80;20958;-70
2021/06/21 04:40:18;;;;;;;9.33;4.50;;;;;;;26.31;51.19;99698.27;1759638;81;21014;-70
2021/06/21 04:42:44;;;;;;;6.40;4.58;;;;;;;26.33;51.04;99690.57;1792796;80;21829;-70
2021/06/21 04:45:10;;;;;;;7.55;5.05;;;;;;;26.26;50.88;99686.55;1759606;81;21450;-70
2021/06/21 04:47:36;;;;;;;11.30;5.05;;;;;;;26.25;50.84;99683.00;1808825;78;20872;-70
2021/06/21 04:50:07;;;;;;;5.65;4.58;;;;;;;26.31;50.81;99687.33;1825129;78;20966;-70
2021/06/21 04:52:36;;;;;;;5.00;4.45;;;;;;;26.41;50.75;99682.83;1792483;79;21411;-70
2021/06/21 04:55:04;;;;;;;11.30;5.22;;;;;;;26.59;50.61;99677.42;1825101;78;21715;-70
2021/06/21 04:57:31;;;;;;;7.40;5.05;;;;;;;26.46;50.34;99678.11;1792252;80;20989;-70
2021/06/21 04:59:57;;;;;;;9.03;4.65;;;;;;;26.52;50.38;99680.25;1825192;78;20939;-71
2021/06/21 05:02:23;;;;;;;5.37;4.87;;;;;;;26.58;50.30;99680.44;1792530;80;21014;-71
2021/06/21 05:04:49;;;;;;;9.10;4.70;;;;;;;26.85;50.25;99682.02;1823055;78;20982;-70
2021/06/21 05:07:15;;;;;;;8.83;4.60;;;;;;;27.09;50.06;99678.66;1792528;80;21837;-71
2021/06/21 05:09:42;;;;;;;6.03;4.53;;;;;;;27.21;49.83;99676.86;1792495;80;21001;-71
2021/06/21 05:12:10;;;;;;;12.47;4.75;;;;;;;27.09;49.70;99680.03;1792377;80;21435;-71
2021/06/21 05:14:37;;;;;;;7.55;4.35;;;;;;;27.08;49.62;99667.48;1792051;79;21530;-71
2021/06/21 05:17:06;;;;;;;8.35;5.17;;;;;;;27.10;49.57;99672.09;1824856;78;21030;-71
2021/06/21 05:19:32;;;;;;;7.95;4.70;;;;;;;27.09;49.47;99670.45;1791647;80;24029;-71
2021/06/21 05:21:58;;;;;;;5.20;4.75;;;;;;;27.18;49.54;99670.61;1798407;78;20990;-70
2021/06/21 05:24:25;;;;;;;10.23;4.78;;;;;;;27.30;49.41;99666.88;1785361;79;21124;-69
2021/06/21 05:26:51;;;;;;;14.00;4.97;;;;;;;27.17;49.34;99667.05;1772801;80;21027;-71
2021/06/21 05:29:17;;;;;;;5.75;4.70;;;;;;;27.11;49.32;99666.88;1783956;79;20902;-72
2021/06/21 05:31:44;;;;;;;10.55;5.10;;;;;;;27.23;49.30;99671.34;1784642;79;21819;-71
2021/06/21 05:34:10;;;;;;;7.85;4.40;;;;;;;27.29;49.17;99673.45;1814214;78;21033;-72
2021/06/21 05:36:36;;;;;;;6.70;4.92;;;;;;;27.29;49.20;99665.24;1782414;79;21010;-72
2021/06/21 05:39:03;;;;;;;8.68;5.20;;;;;;;27.51;49.14;99679.72;1792584;80;21416;-72
2021/06/21 05:41:29;;;;;;;10.23;5.35;;;;;;;27.76;48.99;99674.61;1777710;80;20974;-72
2021/06/21 05:43:55;;;;;;;6.37;4.80;;;;;;;28.02;48.76;99666.75;1794534;80;21803;-72
2021/06/21 05:46:21;;;;;;;8.08;5.20;;;;;;;28.14;48.60;99673.97;1790717;79;20998;-72
2021/06/21 05:48:47;;;;;;;11.10;5.40;;;;;;;28.27;48.43;99671.79;1790312;80;21002;-72
2021/06/21 05:51:13;;;;;;;14.35;5.20;;;;;;;28.24;48.27;99669.66;1790718;80;21006;-72
2021/06/21 05:53:39;;;;;;;7.83;5.40;;;;;;;28.47;48.12;99667.00;1773803;80;21455;-72
2021/06/21 05:56:05;;;;;;;10.55;5.22;;;;;;;28.68;47.92;99668.23;1795325;80;22440;-72
2021/06/21 05:58:31;;;;;;;7.47;5.20;;;;;;;28.86;47.62;99667.29;1794954;80;21568;-72
2021/06/21 06:00:58;;;;;;;5.95;4.80;;;;;;;28.92;47.51;99661.97;1795580;78;21000;-72
2021/06/21 06:03:24;;;;;;;9.28;5.50;;;;;;;28.98;47.10;99667.59;1795242;78;20976;-72
2021/06/21 06:05:50;;;;;;;9.85;5.40;;;;;;;28.89;47.00;99661.18;1802838;78;21515;-72
2021/06/21 06:08:17;;;;;;;5.60;4.80;;;;;;;28.95;47.02;99659.97;1777415;80;21863;-72
2021/06/21 06:10:43;;;;;;;8.78;5.70;;;;;;;29.28;47.01;99662.52;1790169;80;21281;-72
2021/06/21 06:13:09;;;;;;;5.55;4.78;;;;;;;29.62;46.74;99664.17;1792507;80;20997;-72
2021/06/21 06:15:35;;;;;;;6.97;4.80;;;;;;;29.72;46.53;99668.03;1795683;78;21454;-72
2021/06/21 06:18:01;;;;;;;7.83;4.37;;;;;;;29.82;46.28;99669.70;1792521;78;20867;-72
2021/06/21 06:20:27;;;;;;;7.17;4.85;;;;;;;30.12;46.21;99664.77;1764589;81;21824;-72
2021/06/21 06:22:53;;;;;;;9.50;5.05;;;;;;;30.29;45.83;99665.44;1798310;79;20975;-72
2021/06/21 06:25:19;;;;;;;10.08;5.15;;;;;;;30.31;45.67;99657.66;1792356;79;21403;-72
2021/06/21 06:27:46;;;;;;;7.22;5.10;;;;;;;30.44;45.44;99660.33;1764585;81;21330;-72
2021/06/21 06:30:13;;;;;;;6.55;5.30;;;;;;;30.34;45.18;99660.59;1798441;79;21053;-72
2021/06/21 06:32:40;;;;;;;5.90;5.28;;;;;;;30.13;44.90;99650.72;1792280;80;22580;-72
2021/06/21 06:35:07;;;;;;;7.60;5.45;;;;;;;30.07;44.93;99646.49;1764621;81;21002;-72
2021/06/21 06:37:34;;;;;;;8.45;5.20;;;;;;;30.22;44.90;99644.67;1764671;81;21015;-72
2021/06/21 06:40:00;;;;;;;7.03;4.87;;;;;;;30.40;44.75;99648.89;1764697;81;21407;-72
2021/06/21 06:42:26;;;;;;;10.68;5.30;;;;;;;30.34;44.62;99648.77;1798723;78;21045;-72
2021/06/21 06:44:52;;;;;;;9.40;5.22;;;;;;;30.15;44.47;99643.53;1793074;80;21933;-72
2021/06/21 06:47:18;;;;;;;8.35;5.50;;;;;;;30.32;44.52;99642.78;1764639;81;21045;-72
2021/06/21 06:49:44;;;;;;;8.50;5.17;;;;;;;30.62;44.48;99646.05;1792604;79;21527;-72
2021/06/21 06:52:12;;;;;;;8.38;5.08;;;;;;;30.76;44.29;99645.34;1764652;81;21480;-72
2021/06/21 06:56:58;;;;;;;11.55;5.90;;;;;;;30.77;44.15;99653.86;1795791;78;21076;-72
2021/06/21 06:57:15;;;;;;;10.50;5.30;;;;;;;30.40;43.91;99654.39;1814882;78;21813;-72
2021/06/21 06:59:42;;;;;;;7.03;6.10;;;;;;;30.18;43.97;99658.03;1777862;78;21018;-72
2021/06/21 07:02:13;;;;;;;7.28;5.70;;;;;;;30.27;44.04;99660.23;1816198;78;21402;-72
2021/06/21 07:04:39;;;;;;;11.03;6.05;;;;;;;30.27;43.93;99656.67;1761469;81;20994;-72
2021/06/21 07:07:05;;;;;;;9.10;5.47;;;;;;;30.09;43.94;99655.23;1769314;81;21483;-72
2021/06/21 07:09:33;;;;;;;11.33;5.60;;;;;;;30.15;44.10;99652.58;1795673;78;22456;-73
2021/06/21 07:12:00;;;;;;;10.10;5.58;;;;;;;30.29;44.16;99652.50;1805125;78;20969;-73
2021/06/21 07:14:26;;;;;;;6.30;5.70;;;;;;;30.42;44.15;99655.72;1792214;80;21391;-73
2021/06/21 07:16:53;;;;;;;10.00;5.70;;;;;;;30.26;44.00;99663.33;1761519;81;21482;-73
2021/06/21 07:19:20;;;;;;;12.13;5.75;;;;;;;30.14;44.05;99664.73;1793058;78;21015;-73
2021/06/21 07:21:47;;;;;;;7.62;5.95;;;;;;;29.84;44.01;99655.91;1761567;81;21885;-73
2021/06/21 07:24:13;;;;;;;6.15;5.55;;;;;;;29.85;44.15;99663.59;1792852;80;20950;-73
2021/06/21 07:26:39;;;;;;;6.50;5.85;;;;;;;29.91;44.33;99667.27;1761209;81;21212;-73
2021/06/21 07:29:05;;;;;;;6.70;6.00;;;;;;;30.06;44.28;99665.49;1792806;80;21388;-73
2021/06/21 07:31:32;;;;;;;9.78;6.15;;;;;;;30.22;44.33;99666.69;1761499;81;21374;-73
2021/06/21 07:33:59;;;;;;;9.53;6.33;;;;;;;30.50;44.27;99672.02;1792839;80;21823;-73
2021/06/21 07:36:25;;;;;;;9.58;5.65;;;;;;;30.55;44.05;99669.10;1761659;81;20968;-73
2021/06/21 07:38:51;;;;;;;9.93;5.60;;;;;;;30.61;43.87;99670.59;1792995;80;20947;-73
2021/06/21 07:41:17;;;;;;;7.40;6.08;;;;;;;31.07;43.87;99668.09;1761494;81;21363;-73
2021/06/21 07:43:43;;;;;;;12.10;6.20;;;;;;;31.27;43.48;99664.46;1792977;80;21013;-73
2021/06/21 07:46:28;;;;;;;14.23;6.92;;;;;;;31.51;43.36;99663.38;1761604;81;20981;-73
2021/06/21 07:48:54;;;;;;;7.17;5.70;;;;;;;32.04;43.10;99654.69;1792953;80;21542;-73
2021/06/21 07:51:21;;;;;;;7.87;5.47;;;;;;;32.33;42.67;99664.44;1761570;81;20954;-73
2021/06/21 07:53:50;;;;;;;8.13;5.70;;;;;;;32.45;42.17;99667.28;1792914;80;20947;-73
2021/06/21 07:56:15;;;;;;;8.00;5.53;;;;;;;32.69;41.97;99668.06;1761210;81;21317;-73
2021/06/21 07:58:41;;;;;;;7.42;6.00;;;;;;;32.93;41.51;99664.69;1792729;80;21876;-73
2021/06/21 08:01:09;;;;;;;8.53;5.80;;;;;;;32.87;41.14;99657.14;1761348;81;20953;-73
2021/06/21 08:03:35;;;;;;;8.63;5.80;;;;;;;33.01;40.87;99654.12;1792806;80;20967;-73
2021/06/21 08:06:03;;;;;;;9.03;5.42;;;;;;;32.65;39.96;99657.47;1761611;81;21399;-73
2021/06/21 08:08:30;;;;;;;13.57;5.93;;;;;;;32.52;40.06;99654.33;1793161;80;20970;-73
2021/06/21 08:10:56;;;;;;;8.90;5.70;;;;;;;32.57;39.98;99648.63;1761565;81;21867;-73
2021/06/21 08:13:22;;;;;;;8.60;5.95;;;;;;;32.75;39.96;99641.89;1792881;80;20962;-73
2021/06/21 08:15:48;;;;;;;7.92;5.65;;;;;;;32.99;40.02;99647.56;1761676;81;21403;-73
2021/06/21 08:18:14;;;;;;;8.53;6.05;;;;;;;33.27;40.05;99646.47;1792813;80;20875;-73
2021/06/21 08:20:43;;;;;;;7.00;6.05;;;;;;;33.46;39.85;99641.83;1761601;81;20961;-73
2021/06/21 08:23:13;;;;;;;8.83;4.97;;;;;;;33.48;39.75;99638.95;1792816;79;22603;-73
2021/06/21 08:25:39;;;;;;;8.10;6.42;;;;;;;33.55;39.42;99632.86;1761247;81;21419;-73
2021/06/21 08:28:05;;;;;;;10.63;6.00;;;;;;;33.64;39.21;99634.98;1792736;80;20875;-73
2021/06/21 08:30:32;;;;;;;9.35;6.35;;;;;;;33.80;39.12;99631.81;1761686;81;21445;-73
2021/06/21 08:32:58;;;;;;;11.73;6.17;;;;;;;33.99;38.83;99630.67;1792886;80;20950;-73
2021/06/21 08:35:24;;;;;;;10.78;6.03;;;;;;;34.11;38.64;99636.23;1761663;81;21851;-73
2021/06/21 08:37:50;;;;;;;7.47;5.65;;;;;;;34.09;38.20;99637.74;1792947;80;20950;-73
2021/06/21 08:40:17;;;;;;;8.50;5.75;;;;;;;33.80;37.73;99633.20;1761727;81;21087;-73
2021/06/21 08:42:43;;;;;;;8.85;5.80;;;;;;;33.95;37.78;99628.39;1793037;79;21005;-73
2021/06/21 08:45:10;;;;;;;10.23;5.58;;;;;;;34.14;37.52;99632.00;1761819;81;21447;-73
2021/06/21 08:47:37;;;;;;;11.57;5.92;;;;;;;34.18;37.24;99630.73;1793036;80;21817;-73
2021/06/21 08:50:09;;;;;;;9.30;5.83;;;;;;;34.25;37.27;99624.85;1761748;81;21486;-73
2021/06/21 08:52:35;;;;;;;11.18;6.05;;;;;;;34.39;37.01;99625.31;1793079;80;20980;-73
2021/06/21 08:55:04;;;;;;;8.78;5.35;;;;;;;34.23;36.77;99622.20;1761719;81;20991;-73
2021/06/21 08:57:31;;;;;;;5.37;4.97;;;;;;;33.87;36.48;99629.29;1793113;80;21444;-73
2021/06/21 08:59:57;;;;;;;7.92;5.78;;;;;;;33.88;36.70;99620.41;1761747;81;21834;-73
2021/06/21 09:02:23;;;;;;;6.62;5.37;;;;;;;33.84;36.30;99625.02;1792995;80;21002;-73
2021/06/21 09:04:49;;;;;;;5.67;5.15;;;;;;;33.85;36.48;99616.36;1761354;81;21005;-73
2021/06/21 09:07:22;;;;;;;8.93;5.35;;;;;;;34.22;36.41;99614.47;1793107;80;20955;-73
2021/06/21 09:09:49;;;;;;;6.97;5.15;;;;;;;34.04;35.90;99613.86;1761611;81;20966;-74
2021/06/21 09:12:29;;;;;;;10.93;5.60;;;;;;;33.90;35.79;99606.45;1793127;80;22524;-73
2021/06/21 09:14:56;;;;;;;8.45;4.97;;;;;;;34.09;35.47;99610.88;1760853;81;21018;-73
2021/06/21 09:17:25;;;;;;;7.80;5.17;;;;;;;34.07;35.25;99601.28;1793117;80;20973;-73
2021/06/21 09:19:59;;;;;;;6.72;6.10;;;;;;;34.36;35.20;99603.86;1761780;81;21434;-73
2021/06/21 09:22:37;;;;;;;5.83;5.20;;;;;;;34.33;34.56;99609.28;1793034;80;20967;-73
2021/06/21 09:25:17;;;;;;;7.35;5.08;;;;;;;33.99;34.57;99611.30;1761609;79;21985;-73
2021/06/21 09:28:01;;;;;;;8.38;5.20;;;;;;;33.79;34.61;99602.52;1792946;80;20990;-73
2021/06/21 09:30:27;;;;;;;19.70;6.20;;;;;;;33.74;34.78;99604.14;1758911;81;21005;-73
2021/06/21 09:32:56;;;;;;;7.33;5.22;;;;;;;34.11;34.91;99596.09;1794668;78;21103;-73
2021/06/21 09:35:34;;;;;;;6.85;5.33;;;;;;;34.28;34.76;99597.03;1761686;81;20970;-71
2021/06/21 09:38:03;;;;;;;10.08;5.83;;;;;;;33.98;34.31;99604.74;1789154;80;21997;-72
2021/06/21 09:40:38;;;;;;;10.50;5.83;;;;;;;33.58;34.52;99601.18;1797605;78;20997;-70
2021/06/21 09:43:28;;;;;;;6.90;6.12;;;;;;;33.61;34.84;99599.67;1804939;77;21078;-71
2021/06/21 09:46:16;;;;;;;12.30;5.00;;;;;;;33.55;34.84;99607.40;1816532;78;20997;-71
2021/06/21 09:48:49;;;;;;;5.15;4.22;;;;;;;33.82;34.96;99600.45;1779147;80;21073;-71
2021/06/21 09:51:36;;;;;;;8.08;4.90;;;;;;;34.03;34.68;99595.63;1784128;80;21836;-71
2021/06/21 09:54:11;;;;;;;6.87;4.42;;;;;;;34.20;34.26;99590.46;1785656;79;21480;-71
2021/06/21 09:56:48;;;;;;;7.87;4.80;;;;;;;34.19;33.70;99597.17;1786727;79;20983;-71
2021/06/21 09:59:22;;;;;;;11.53;5.33;;;;;;;34.22;33.49;99582.63;1782899;79;21672;-71
2021/06/21 10:02:10;;;;;;;6.92;4.15;;;;;;;34.36;33.47;99600.27;1779504;79;21000;-71
2021/06/21 10:04:38;;;;;;;11.97;4.50;;;;;;;34.27;33.18;99588.52;1771314;79;22023;-71
2021/06/21 10:07:05;;;;;;;6.30;4.45;;;;;;;34.38;32.98;99578.56;1795781;78;20981;-71
2021/06/21 10:09:31;;;;;;;7.42;4.50;;;;;;;34.55;32.78;99576.95;1809509;78;21447;-71
2021/06/21 10:11:57;;;;;;;5.55;4.50;;;;;;;34.58;32.46;99580.41;1817207;77;20931;-71
2021/06/21 10:14:28;;;;;;;8.58;4.80;;;;;;;34.35;32.25;99580.08;1822659;78;20998;-71
2021/06/21 10:16:54;;;;;;;9.83;4.80;;;;;;;34.34;32.14;99571.53;1781441;80;21919;-71
2021/06/21 10:19:20;;;;;;;5.30;4.67;;;;;;;34.27;32.07;99577.45;1787148;80;21066;-72
2021/06/21 10:21:50;;;;;;;8.10;4.80;;;;;;;34.29;32.19;99566.25;1803582;78;20993;-71
2021/06/21 10:24:17;;;;;;;5.53;4.40;;;;;;;34.34;32.20;99566.59;1758244;79;20999;-71
2021/06/21 10:26:50;;;;;;;5.20;4.70;;;;;;;34.52;32.18;99557.66;1780216;79;21577;-71
2021/06/21 10:29:14;;;;;;;5.90;4.75;;;;;;;34.47;31.91;99557.11;1793017;78;21816;-71
2021/06/21 10:31:42;;;;;;;4.87;4.40;;;;;;;34.25;31.54;99557.59;1791777;80;20891;-71
2021/06/21 10:34:08;;;;;;;5.80;3.90;;;;;;;34.33;31.29;99554.71;1786971;78;20986;-71
2021/06/21 10:36:50;;;;;;;5.28;4.10;;;;;;;34.36;30.85;99549.05;1815368;78;21006;-71
2021/06/21 10:39:23;;;;;;;7.67;3.83;;;;;;;34.44;30.84;99553.66;1811944;78;20974;-72
2021/06/21 10:42:10;;;;;;;6.08;4.62;;;;;;;34.24;29.12;99554.58;1791989;80;21805;-72
2021/06/21 10:44:58;;;;;;;10.78;4.62;;;;;;;34.13;29.15;99561.20;1810225;78;21038;-71
2021/06/21 10:47:28;;;;;;;4.97;4.47;;;;;;;34.13;29.42;99552.28;1820916;78;20983;-71
2021/06/21 10:50:01;;;;;;;11.33;3.80;;;;;;;34.42;29.95;99549.84;1822615;78;21010;-71
2021/06/21 10:52:52;;;;;;;5.37;3.52;;;;;;;34.54;29.72;99551.78;1821804;78;21503;-72
2021/06/21 10:55:33;;;;;;;4.05;3.72;;;;;;;34.64;29.76;99549.94;1822672;78;21827;-71
2021/06/21 10:58:11;;;;;;;7.62;4.50;;;;;;;34.68;29.63;99543.12;1760476;80;21028;-71
2021/06/21 11:00:43;;;;;;;8.00;5.00;;;;;;;34.71;29.80;99541.84;1789523;79;21408;-71
2021/06/21 11:03:32;;;;;;;5.17;4.53;;;;;;;34.97;30.01;99522.81;1792007;80;21004;-72
2021/06/21 11:06:04;;;;;;;6.55;4.53;;;;;;;35.23;30.13;99523.73;1759484;80;21017;-71
2021/06/21 11:08:49;;;;;;;6.62;4.53;;;;;;;35.15;30.06;99529.46;1761026;80;21830;-71
2021/06/21 11:11:41;;;;;;;10.55;5.03;;;;;;;34.97;30.07;99520.05;1760478;81;21536;-71
2021/06/21 11:14:13;;;;;;;9.18;4.22;;;;;;;34.91;29.90;99528.36;1760924;80;20981;-71
2021/06/21 11:16:41;;;;;;;5.58;3.85;;;;;;;34.91;30.00;99528.36;1759002;81;20973;-71
2021/06/21 11:19:25;;;;;;;5.15;4.10;;;;;;;34.92;30.12;99529.17;1791691;79;21001;-71
2021/06/21 11:21:54;;;;;;;5.12;4.05;;;;;;;34.71;29.76;99536.30;1797981;78;21749;-71
2021/06/21 11:24:43;;;;;;;;;;;;;;;34.36;29.65;99526.89;1766716;81;21387;-71
2021/06/21 11:27:12;;;;;;;6.72;4.10;;;;;;;34.04;29.92;99527.24;1755723;81;20177;-71
2021/06/21 11:29:43;;;;;;;;;;;;;;;33.70;30.19;99537.39;1781817;80;21049;-71
2021/06/21 11:32:10;;;;;;;6.05;4.30;;;;;;;33.90;30.44;99533.70;1765853;81;20439;-71
2021/06/21 11:35:01;;;;;;;6.00;3.92;;;;;;;34.22;30.41;99531.98;1777617;80;21749;-71
2021/06/21 11:37:47;;;;;;;8.78;4.12;;;;;;;34.43;30.30;99520.19;1765598;81;21055;-71
2021/06/21 11:40:21;;;;;;;4.78;4.33;;;;;;;34.62;29.96;99524.56;1768382;79;21473;-71
2021/06/21 11:43:06;;;;;;;10.35;5.08;;;;;;;34.33;29.51;99518.71;1794659;79;21012;-71